sensor_id;sensor_type;location;lat;lon;timestamp;P1;durP1;ratioP1;P2;durP2;ratioP2
24259;SDS011;12384;48.112;18.418;2023-04-05T00:01:23;13.37;;;12.27;;
24259;SDS011;12384;48.112;18.418;2023-04-05T00:03:52;13.57;;;12.47;;
24259;SDS011;12384;48.112;18.418;2023-04-05T00:06:21;13.17;;;12.23;;
24259;SDS011;12384;48.112;18.418;2023-04-05T00:08:52;14.60;;;13.20;;
24259;SDS011;12384;48.112;18.418;2023-04-05T00:11:21;12.77;;;11.77;;
24259;SDS011;12384;48.112;18.418;2023-04-05T00:13:50;13.90;;;12.70;;
24259;SDS011;12384;48.112;18.418;2023-04-05T00:16:20;12.27;;;11.37;;
24259;SDS011;12384;48.112;18.418;2023-04-05T00:18:48;13.73;;;12.53;;
24259;SDS011;12384;48.112;18.418;2023-04-05T00:21:17;13.73;;;12.53;;
24259;SDS011;12384;48.112;18.418;2023-04-05T00:23:47;13.73;;;12.63;;
24259;SDS011;12384;48.112;18.418;2023-04-05T00:26:17;13.97;;;12.60;;
24259;SDS011;12384;48.112;18.418;2023-04-05T00:28:51;14.13;;;12.93;;
24259;SDS011;12384;48.112;18.418;2023-04-05T00:31:21;14.03;;;12.93;;
24259;SDS011;12384;48.112;18.418;2023-04-05T00:33:49;13.57;;;12.57;;
24259;SDS011;12384;48.112;18.418;2023-04-05T00:36:19;15.67;;;13.37;;
24259;SDS011;12384;48.112;18.418;2023-04-05T00:38:47;15.20;;;13.67;;
24259;SDS011;12384;48.112;18.418;2023-04-05T00:41:16;15.37;;;13.13;;
24259;SDS011;12384;48.112;18.418;2023-04-05T00:43:45;18.83;;;13.43;;
24259;SDS011;12384;48.112;18.418;2023-04-05T00:46:14;14.90;;;13.43;;
24259;SDS011;12384;48.112;18.418;2023-04-05T00:48:45;14.53;;;13.20;;
24259;SDS011;12384;48.112;18.418;2023-04-05T00:51:14;15.73;;;14.23;;
24259;SDS011;12384;48.112;18.418;2023-04-05T00:53:42;17.23;;;15.50;;
24259;SDS011;12384;48.112;18.418;2023-04-05T00:56:12;15.73;;;13.30;;
24259;SDS011;12384;48.112;18.418;2023-04-05T00:58:42;15.63;;;14.20;;
24259;SDS011;12384;48.112;18.418;2023-04-05T01:01:12;14.23;;;12.93;;
24259;SDS011;12384;48.112;18.418;2023-04-05T01:03:48;15.10;;;13.43;;
24259;SDS011;12384;48.112;18.418;2023-04-05T01:06:22;14.57;;;13.33;;
24259;SDS011;12384;48.112;18.418;2023-04-05T01:09:03;14.53;;;13.27;;
24259;SDS011;12384;48.112;18.418;2023-04-05T01:11:36;13.20;;;12.20;;
24259;SDS011;12384;48.112;18.418;2023-04-05T01:14:06;14.63;;;13.43;;
24259;SDS011;12384;48.112;18.418;2023-04-05T01:16:35;15.67;;;14.30;;
24259;SDS011;12384;48.112;18.418;2023-04-05T01:19:05;14.53;;;13.27;;
24259;SDS011;12384;48.112;18.418;2023-04-05T01:27:57;15.60;;;14.07;;
24259;SDS011;12384;48.112;18.418;2023-04-05T01:30:48;13.90;;;12.60;;
24259;SDS011;12384;48.112;18.418;2023-04-05T01:33:23;14.20;;;13.00;;
24259;SDS011;12384;48.112;18.418;2023-04-05T01:35:58;13.80;;;12.50;;
24259;SDS011;12384;48.112;18.418;2023-04-05T01:38:34;15.40;;;13.70;;
24259;SDS011;12384;48.112;18.418;2023-04-05T01:41:06;13.70;;;12.50;;
24259;SDS011;12384;48.112;18.418;2023-04-05T01:43:34;14.33;;;13.03;;
24259;SDS011;12384;48.112;18.418;2023-04-05T01:46:04;14.40;;;13.10;;
24259;SDS011;12384;48.112;18.418;2023-04-05T01:48:33;13.70;;;12.50;;
24259;SDS011;12384;48.112;18.418;2023-04-05T01:51:02;14.57;;;13.10;;
24259;SDS011;12384;48.112;18.418;2023-04-05T01:53:30;14.73;;;13.43;;
24259;SDS011;12384;48.112;18.418;2023-04-05T01:55:59;14.20;;;12.90;;
24259;SDS011;12384;48.112;18.418;2023-04-05T01:58:28;13.93;;;12.70;;
24259;SDS011;12384;48.112;18.418;2023-04-05T02:00:57;14.40;;;13.13;;
24259;SDS011;12384;48.112;18.418;2023-04-05T02:03:26;15.23;;;13.80;;
24259;SDS011;12384;48.112;18.418;2023-04-05T02:05:55;14.47;;;13.23;;
24259;SDS011;12384;48.112;18.418;2023-04-05T02:08:24;14.70;;;13.40;;
24259;SDS011;12384;48.112;18.418;2023-04-05T02:10:53;14.43;;;13.17;;
24259;SDS011;12384;48.112;18.418;2023-04-05T02:13:21;13.83;;;12.67;;
24259;SDS011;12384;48.112;18.418;2023-04-05T02:15:51;14.50;;;13.27;;
24259;SDS011;12384;48.112;18.418;2023-04-05T02:18:20;14.33;;;13.03;;
24259;SDS011;12384;48.112;18.418;2023-04-05T02:21:01;14.17;;;12.80;;
24259;SDS011;12384;48.112;18.418;2023-04-05T02:23:31;14.13;;;13.03;;
24259;SDS011;12384;48.112;18.418;2023-04-05T02:25:59;14.80;;;13.53;;
24259;SDS011;12384;48.112;18.418;2023-04-05T02:28:29;15.30;;;13.90;;
24259;SDS011;12384;48.112;18.418;2023-04-05T02:30:57;15.13;;;13.67;;
24259;SDS011;12384;48.112;18.418;2023-04-05T02:33:26;13.60;;;12.40;;
24259;SDS011;12384;48.112;18.418;2023-04-05T02:35:55;13.23;;;12.13;;
24259;SDS011;12384;48.112;18.418;2023-04-05T02:38:25;14.30;;;13.10;;
24259;SDS011;12384;48.112;18.418;2023-04-05T02:40:53;13.57;;;12.47;;
24259;SDS011;12384;48.112;18.418;2023-04-05T02:43:22;14.33;;;12.90;;
24259;SDS011;12384;48.112;18.418;2023-04-05T02:45:50;15.07;;;13.67;;
24259;SDS011;12384;48.112;18.418;2023-04-05T02:48:19;14.17;;;12.97;;
24259;SDS011;12384;48.112;18.418;2023-04-05T02:50:48;14.17;;;12.97;;
24259;SDS011;12384;48.112;18.418;2023-04-05T02:53:18;15.00;;;13.70;;
24259;SDS011;12384;48.112;18.418;2023-04-05T02:55:55;14.50;;;13.17;;
24259;SDS011;12384;48.112;18.418;2023-04-05T02:58:26;14.67;;;13.37;;
24259;SDS011;12384;48.112;18.418;2023-04-05T03:00:55;14.43;;;13.13;;
24259;SDS011;12384;48.112;18.418;2023-04-05T03:03:29;13.13;;;11.97;;
24259;SDS011;12384;48.112;18.418;2023-04-05T03:06:01;14.23;;;13.03;;
24259;SDS011;12384;48.112;18.418;2023-04-05T03:08:46;12.70;;;11.70;;
24259;SDS011;12384;48.112;18.418;2023-04-05T03:11:21;14.10;;;12.73;;
24259;SDS011;12384;48.112;18.418;2023-04-05T03:13:54;13.57;;;12.37;;
24259;SDS011;12384;48.112;18.418;2023-04-05T03:16:35;14.83;;;13.30;;
24259;SDS011;12384;48.112;18.418;2023-04-05T03:19:20;14.37;;;13.17;;
24259;SDS011;12384;48.112;18.418;2023-04-05T03:21:53;13.37;;;12.20;;
24259;SDS011;12384;48.112;18.418;2023-04-05T03:24:29;14.10;;;12.80;;
24259;SDS011;12384;48.112;18.418;2023-04-05T03:27:02;14.50;;;13.23;;
24259;SDS011;12384;48.112;18.418;2023-04-05T03:29:52;14.60;;;13.37;;
24259;SDS011;12384;48.112;18.418;2023-04-05T03:32:20;14.00;;;12.90;;
24259;SDS011;12384;48.112;18.418;2023-04-05T03:34:57;14.60;;;13.10;;
24259;SDS011;12384;48.112;18.418;2023-04-05T03:37:26;13.83;;;12.60;;
24259;SDS011;12384;48.112;18.418;2023-04-05T03:40:01;14.13;;;12.87;;
24259;SDS011;12384;48.112;18.418;2023-04-05T03:42:33;14.93;;;13.53;;
24259;SDS011;12384;48.112;18.418;2023-04-05T03:45:01;13.47;;;12.27;;
24259;SDS011;12384;48.112;18.418;2023-04-05T03:47:31;13.13;;;12.13;;
24259;SDS011;12384;48.112;18.418;2023-04-05T03:50:04;13.70;;;12.60;;
24259;SDS011;12384;48.112;18.418;2023-04-05T03:52:33;13.80;;;12.63;;
24259;SDS011;12384;48.112;18.418;2023-04-05T03:55:04;15.47;;;14.07;;
24259;SDS011;12384;48.112;18.418;2023-04-05T03:57:37;14.07;;;12.97;;
24259;SDS011;12384;48.112;18.418;2023-04-05T04:00:26;14.90;;;13.80;;
24259;SDS011;12384;48.112;18.418;2023-04-05T04:03:21;15.20;;;14.00;;
24259;SDS011;12384;48.112;18.418;2023-04-05T04:05:52;16.00;;;14.70;;
24259;SDS011;12384;48.112;18.418;2023-04-05T04:08:21;15.63;;;14.37;;
24259;SDS011;12384;48.112;18.418;2023-04-05T04:10:49;15.57;;;14.37;;
24259;SDS011;12384;48.112;18.418;2023-04-05T04:13:25;16.13;;;14.67;;
24259;SDS011;12384;48.112;18.418;2023-04-05T04:16:16;14.33;;;13.33;;
24259;SDS011;12384;48.112;18.418;2023-04-05T04:18:44;15.90;;;14.70;;
24259;SDS011;12384;48.112;18.418;2023-04-05T04:21:33;16.37;;;15.03;;
24259;SDS011;12384;48.112;18.418;2023-04-05T04:24:21;16.57;;;15.30;;
24259;SDS011;12384;48.112;18.418;2023-04-05T04:27:21;16.10;;;14.90;;
24259;SDS011;12384;48.112;18.418;2023-04-05T04:30:11;15.03;;;14.03;;
24259;SDS011;12384;48.112;18.418;2023-04-05T04:33:04;16.50;;;14.97;;
24259;SDS011;12384;48.112;18.418;2023-04-05T04:35:42;15.07;;;13.87;;
24259;SDS011;12384;48.112;18.418;2023-04-05T04:38:51;15.63;;;14.33;;
24259;SDS011;12384;48.112;18.418;2023-04-05T04:41:42;15.00;;;13.83;;
24259;SDS011;12384;48.112;18.418;2023-04-05T04:44:34;13.03;;;12.10;;
24259;SDS011;12384;48.112;18.418;2023-04-05T04:47:22;12.40;;;11.60;;
24259;SDS011;12384;48.112;18.418;2023-04-05T04:50:13;13.60;;;12.70;;
24259;SDS011;12384;48.112;18.418;2023-04-05T04:52:46;12.90;;;12.10;;
24259;SDS011;12384;48.112;18.418;2023-04-05T04:55:14;13.33;;;12.43;;
24259;SDS011;12384;48.112;18.418;2023-04-05T04:57:45;13.33;;;12.33;;
24259;SDS011;12384;48.112;18.418;2023-04-05T05:00:14;13.20;;;12.30;;
24259;SDS011;12384;48.112;18.418;2023-04-05T05:02:45;13.07;;;12.07;;
24259;SDS011;12384;48.112;18.418;2023-04-05T05:05:15;12.57;;;11.47;;
24259;SDS011;12384;48.112;18.418;2023-04-05T05:07:44;13.50;;;12.17;;
24259;SDS011;12384;48.112;18.418;2023-04-05T05:10:12;13.90;;;12.50;;
24259;SDS011;12384;48.112;18.418;2023-04-05T05:12:42;12.97;;;12.07;;
24259;SDS011;12384;48.112;18.418;2023-04-05T05:15:13;13.20;;;12.20;;
24259;SDS011;12384;48.112;18.418;2023-04-05T05:17:42;12.63;;;11.73;;
24259;SDS011;12384;48.112;18.418;2023-04-05T05:20:12;12.73;;;11.67;;
24259;SDS011;12384;48.112;18.418;2023-04-05T05:22:45;12.63;;;11.63;;
24259;SDS011;12384;48.112;18.418;2023-04-05T05:25:14;12.70;;;11.80;;
24259;SDS011;12384;48.112;18.418;2023-04-05T05:27:42;12.57;;;11.57;;
24259;SDS011;12384;48.112;18.418;2023-04-05T05:30:11;12.13;;;11.33;;
24259;SDS011;12384;48.112;18.418;2023-04-05T05:32:40;13.13;;;12.13;;
24259;SDS011;12384;48.112;18.418;2023-04-05T05:35:08;13.10;;;12.07;;
24259;SDS011;12384;48.112;18.418;2023-04-05T05:37:38;12.20;;;11.23;;
24259;SDS011;12384;48.112;18.418;2023-04-05T05:40:07;11.73;;;10.90;;
24259;SDS011;12384;48.112;18.418;2023-04-05T05:42:39;11.73;;;10.77;;
24259;SDS011;12384;48.112;18.418;2023-04-05T05:45:07;10.90;;;10.00;;
24259;SDS011;12384;48.112;18.418;2023-04-05T05:47:37;12.10;;;11.20;;
24259;SDS011;12384;48.112;18.418;2023-04-05T05:50:05;12.30;;;11.30;;
24259;SDS011;12384;48.112;18.418;2023-04-05T05:52:35;12.53;;;11.37;;
24259;SDS011;12384;48.112;18.418;2023-04-05T05:55:06;14.70;;;12.70;;
24259;SDS011;12384;48.112;18.418;2023-04-05T05:57:35;17.53;;;13.10;;
24259;SDS011;12384;48.112;18.418;2023-04-05T06:00:04;14.20;;;12.70;;
24259;SDS011;12384;48.112;18.418;2023-04-05T06:02:40;14.80;;;13.50;;
24259;SDS011;12384;48.112;18.418;2023-04-05T06:05:08;13.30;;;12.27;;
24259;SDS011;12384;48.112;18.418;2023-04-05T06:07:37;13.27;;;12.30;;
24259;SDS011;12384;48.112;18.418;2023-04-05T06:10:07;12.17;;;11.03;;
24259;SDS011;12384;48.112;18.418;2023-04-05T06:12:37;12.53;;;11.43;;
24259;SDS011;12384;48.112;18.418;2023-04-05T06:15:06;12.07;;;11.13;;
24259;SDS011;12384;48.112;18.418;2023-04-05T06:17:35;12.60;;;11.50;;
24259;SDS011;12384;48.112;18.418;2023-04-05T06:20:08;10.80;;;10.10;;
24259;SDS011;12384;48.112;18.418;2023-04-05T06:22:38;11.20;;;10.40;;
24259;SDS011;12384;48.112;18.418;2023-04-05T06:25:08;11.57;;;10.77;;
24259;SDS011;12384;48.112;18.418;2023-04-05T06:27:38;12.27;;;11.37;;
24259;SDS011;12384;48.112;18.418;2023-04-05T06:30:07;11.50;;;10.70;;
24259;SDS011;12384;48.112;18.418;2023-04-05T06:32:36;12.30;;;11.40;;
24259;SDS011;12384;48.112;18.418;2023-04-05T06:35:05;11.47;;;10.60;;
24259;SDS011;12384;48.112;18.418;2023-04-05T06:37:34;10.83;;;10.13;;
24259;SDS011;12384;48.112;18.418;2023-04-05T06:40:03;10.87;;;10.07;;
24259;SDS011;12384;48.112;18.418;2023-04-05T06:42:33;11.43;;;10.53;;
24259;SDS011;12384;48.112;18.418;2023-04-05T06:45:04;11.27;;;10.50;;
24259;SDS011;12384;48.112;18.418;2023-04-05T06:47:33;11.47;;;10.67;;
24259;SDS011;12384;48.112;18.418;2023-04-05T06:50:02;11.90;;;11.10;;
24259;SDS011;12384;48.112;18.418;2023-04-05T06:52:30;12.20;;;11.40;;
24259;SDS011;12384;48.112;18.418;2023-04-05T06:54:59;12.27;;;11.47;;
24259;SDS011;12384;48.112;18.418;2023-04-05T06:57:28;13.80;;;12.70;;
24259;SDS011;12384;48.112;18.418;2023-04-05T06:59:57;14.17;;;13.20;;
24259;SDS011;12384;48.112;18.418;2023-04-05T07:02:26;12.27;;;11.33;;
24259;SDS011;12384;48.112;18.418;2023-04-05T07:04:55;12.00;;;11.10;;
24259;SDS011;12384;48.112;18.418;2023-04-05T07:07:30;12.90;;;12.07;;
24259;SDS011;12384;48.112;18.418;2023-04-05T07:09:59;12.90;;;12.00;;
24259;SDS011;12384;48.112;18.418;2023-04-05T07:12:28;12.20;;;11.30;;
24259;SDS011;12384;48.112;18.418;2023-04-05T07:14:58;11.80;;;11.00;;
24259;SDS011;12384;48.112;18.418;2023-04-05T07:17:27;12.53;;;11.63;;
24259;SDS011;12384;48.112;18.418;2023-04-05T07:19:56;12.97;;;11.97;;
24259;SDS011;12384;48.112;18.418;2023-04-05T07:22:24;11.80;;;11.07;;
24259;SDS011;12384;48.112;18.418;2023-04-05T07:24:53;12.33;;;11.40;;
24259;SDS011;12384;48.112;18.418;2023-04-05T07:27:22;13.43;;;12.37;;
24259;SDS011;12384;48.112;18.418;2023-04-05T07:29:50;12.07;;;11.27;;
24259;SDS011;12384;48.112;18.418;2023-04-05T07:32:20;12.93;;;12.00;;
24259;SDS011;12384;48.112;18.418;2023-04-05T07:34:48;12.20;;;11.30;;
24259;SDS011;12384;48.112;18.418;2023-04-05T07:37:17;12.03;;;11.23;;
24259;SDS011;12384;48.112;18.418;2023-04-05T07:39:45;12.40;;;11.50;;
24259;SDS011;12384;48.112;18.418;2023-04-05T07:42:14;11.83;;;10.93;;
24259;SDS011;12384;48.112;18.418;2023-04-05T07:44:43;11.20;;;10.30;;
24259;SDS011;12384;48.112;18.418;2023-04-05T07:47:12;12.13;;;11.33;;
24259;SDS011;12384;48.112;18.418;2023-04-05T07:49:41;11.47;;;10.57;;
24259;SDS011;12384;48.112;18.418;2023-04-05T07:52:10;12.63;;;11.83;;
24259;SDS011;12384;48.112;18.418;2023-04-05T07:54:38;13.33;;;12.10;;
24259;SDS011;12384;48.112;18.418;2023-04-05T07:57:08;12.03;;;11.13;;
24259;SDS011;12384;48.112;18.418;2023-04-05T07:59:37;11.50;;;10.70;;
24259;SDS011;12384;48.112;18.418;2023-04-05T08:02:05;11.77;;;11.07;;
24259;SDS011;12384;48.112;18.418;2023-04-05T08:04:42;11.40;;;10.70;;
24259;SDS011;12384;48.112;18.418;2023-04-05T08:07:10;12.23;;;11.33;;
24259;SDS011;12384;48.112;18.418;2023-04-05T08:09:39;11.50;;;10.70;;
24259;SDS011;12384;48.112;18.418;2023-04-05T08:12:07;11.83;;;11.03;;
24259;SDS011;12384;48.112;18.418;2023-04-05T08:14:37;10.60;;;9.90;;
24259;SDS011;12384;48.112;18.418;2023-04-05T08:17:05;12.13;;;11.33;;
24259;SDS011;12384;48.112;18.418;2023-04-05T08:19:34;11.82;;;10.93;;
24259;SDS011;12384;48.112;18.418;2023-04-05T08:22:03;11.68;;;10.77;;
24259;SDS011;12384;48.112;18.418;2023-04-05T08:24:32;11.10;;;10.40;;
24259;SDS011;12384;48.112;18.418;2023-04-05T08:27:01;10.40;;;9.60;;
24259;SDS011;12384;48.112;18.418;2023-04-05T08:29:29;10.52;;;9.82;;
24259;SDS011;12384;48.112;18.418;2023-04-05T08:31:58;10.77;;;9.98;;
24259;SDS011;12384;48.112;18.418;2023-04-05T08:34:26;10.57;;;9.77;;
24259;SDS011;12384;48.112;18.418;2023-04-05T08:36:56;9.80;;;9.15;;
24259;SDS011;12384;48.112;18.418;2023-04-05T08:39:27;16.43;;;14.90;;
24259;SDS011;12384;48.112;18.418;2023-04-05T08:41:58;13.30;;;12.07;;
24259;SDS011;12384;48.112;18.418;2023-04-05T08:44:31;11.13;;;10.43;;
24259;SDS011;12384;48.112;18.418;2023-04-05T08:47:02;11.07;;;10.27;;
24259;SDS011;12384;48.112;18.418;2023-04-05T08:49:31;10.07;;;9.48;;
24259;SDS011;12384;48.112;18.418;2023-04-05T08:52:00;10.52;;;9.82;;
24259;SDS011;12384;48.112;18.418;2023-04-05T08:54:31;11.23;;;10.33;;
24259;SDS011;12384;48.112;18.418;2023-04-05T08:56:59;10.57;;;9.88;;
24259;SDS011;12384;48.112;18.418;2023-04-05T08:59:32;10.07;;;9.38;;
24259;SDS011;12384;48.112;18.418;2023-04-05T09:02:06;11.18;;;10.27;;
24259;SDS011;12384;48.112;18.418;2023-04-05T09:04:42;11.07;;;10.27;;
24259;SDS011;12384;48.112;18.418;2023-04-05T09:07:12;11.90;;;11.00;;
24259;SDS011;12384;48.112;18.418;2023-04-05T09:09:43;11.90;;;11.00;;
24259;SDS011;12384;48.112;18.418;2023-04-05T09:12:16;12.43;;;11.63;;
24259;SDS011;12384;48.112;18.418;2023-04-05T09:14:48;11.38;;;10.57;;
24259;SDS011;12384;48.112;18.418;2023-04-05T09:17:18;10.77;;;10.07;;
24259;SDS011;12384;48.112;18.418;2023-04-05T09:19:48;12.13;;;11.32;;
24259;SDS011;12384;48.112;18.418;2023-04-05T09:22:16;11.30;;;10.50;;
24259;SDS011;12384;48.112;18.418;2023-04-05T09:24:46;11.68;;;10.85;;
24259;SDS011;12384;48.112;18.418;2023-04-05T09:27:19;10.75;;;10.05;;
24259;SDS011;12384;48.112;18.418;2023-04-05T09:29:53;10.75;;;10.05;;
24259;SDS011;12384;48.112;18.418;2023-04-05T09:32:24;11.30;;;10.50;;
24259;SDS011;12384;48.112;18.418;2023-04-05T09:34:53;10.73;;;10.10;;
24259;SDS011;12384;48.112;18.418;2023-04-05T09:37:29;10.57;;;9.95;;
24259;SDS011;12384;48.112;18.418;2023-04-05T09:40:02;11.02;;;10.23;;
24259;SDS011;12384;48.112;18.418;2023-04-05T09:42:33;12.00;;;11.20;;
24259;SDS011;12384;48.112;18.418;2023-04-05T09:45:11;11.73;;;11.02;;
24259;SDS011;12384;48.112;18.418;2023-04-05T09:47:53;12.07;;;11.27;;
24259;SDS011;12384;48.112;18.418;2023-04-05T09:50:23;11.67;;;10.87;;
24259;SDS011;12384;48.112;18.418;2023-04-05T09:53:04;11.18;;;10.43;;
24259;SDS011;12384;48.112;18.418;2023-04-05T09:55:36;11.13;;;10.40;;
24259;SDS011;12384;48.112;18.418;2023-04-05T09:58:10;12.05;;;11.13;;
24259;SDS011;12384;48.112;18.418;2023-04-05T10:00:46;14.00;;;12.30;;
24259;SDS011;12384;48.112;18.418;2023-04-05T10:03:32;11.97;;;11.17;;
24259;SDS011;12384;48.112;18.418;2023-04-05T10:06:14;12.43;;;11.43;;
24259;SDS011;12384;48.112;18.418;2023-04-05T10:08:43;10.90;;;10.20;;
24259;SDS011;12384;48.112;18.418;2023-04-05T10:11:15;10.88;;;10.18;;
24259;SDS011;12384;48.112;18.418;2023-04-05T10:13:44;11.50;;;10.80;;
24259;SDS011;12384;48.112;18.418;2023-04-05T10:16:18;11.37;;;10.57;;
24259;SDS011;12384;48.112;18.418;2023-04-05T10:18:49;10.70;;;10.00;;
24259;SDS011;12384;48.112;18.418;2023-04-05T10:21:20;10.43;;;9.73;;
24259;SDS011;12384;48.112;18.418;2023-04-05T10:23:51;11.65;;;10.80;;
24259;SDS011;12384;48.112;18.418;2023-04-05T10:26:29;11.65;;;10.75;;
24259;SDS011;12384;48.112;18.418;2023-04-05T10:29:06;11.40;;;10.70;;
24259;SDS011;12384;48.112;18.418;2023-04-05T10:31:42;12.17;;;11.27;;
24259;SDS011;12384;48.112;18.418;2023-04-05T10:34:19;11.25;;;10.52;;
24259;SDS011;12384;48.112;18.418;2023-04-05T10:36:56;11.45;;;10.65;;
24259;SDS011;12384;48.112;18.418;2023-04-05T10:39:27;11.35;;;10.50;;
24259;SDS011;12384;48.112;18.418;2023-04-05T10:42:00;11.32;;;10.45;;
24259;SDS011;12384;48.112;18.418;2023-04-05T10:44:33;11.23;;;10.47;;
24259;SDS011;12384;48.112;18.418;2023-04-05T10:47:04;10.88;;;10.18;;
24259;SDS011;12384;48.112;18.418;2023-04-05T10:49:38;11.45;;;10.68;;
24259;SDS011;12384;48.112;18.418;2023-04-05T10:52:09;12.38;;;11.50;;
24259;SDS011;12384;48.112;18.418;2023-04-05T10:54:38;12.03;;;11.23;;
24259;SDS011;12384;48.112;18.418;2023-04-05T10:57:09;11.73;;;10.93;;
24259;SDS011;12384;48.112;18.418;2023-04-05T10:59:40;11.75;;;11.05;;
24259;SDS011;12384;48.112;18.418;2023-04-05T11:02:11;16.67;;;15.23;;
24259;SDS011;12384;48.112;18.418;2023-04-05T11:04:40;14.77;;;13.27;;
24259;SDS011;12384;48.112;18.418;2023-04-05T11:07:10;16.70;;;15.05;;
24259;SDS011;12384;48.112;18.418;2023-04-05T11:09:49;12.88;;;11.88;;
24259;SDS011;12384;48.112;18.418;2023-04-05T11:12:20;12.63;;;11.57;;
24259;SDS011;12384;48.112;18.418;2023-04-05T11:15:28;12.23;;;11.33;;
24259;SDS011;12384;48.112;18.418;2023-04-05T11:18:01;11.60;;;10.80;;
24259;SDS011;12384;48.112;18.418;2023-04-05T11:20:45;10.60;;;9.90;;
24259;SDS011;12384;48.112;18.418;2023-04-05T11:23:18;10.83;;;10.07;;
24259;SDS011;12384;48.112;18.418;2023-04-05T11:25:51;11.90;;;10.90;;
24259;SDS011;12384;48.112;18.418;2023-04-05T11:28:27;10.67;;;9.83;;
24259;SDS011;12384;48.112;18.418;2023-04-05T11:30:57;11.02;;;10.20;;
24259;SDS011;12384;48.112;18.418;2023-04-05T11:33:57;11.30;;;10.60;;
24259;SDS011;12384;48.112;18.418;2023-04-05T11:36:36;10.77;;;9.88;;
24259;SDS011;12384;48.112;18.418;2023-04-05T11:39:23;12.67;;;11.67;;
24259;SDS011;12384;48.112;18.418;2023-04-05T11:41:53;10.77;;;10.10;;
24259;SDS011;12384;48.112;18.418;2023-04-05T11:44:24;10.00;;;9.33;;
24259;SDS011;12384;48.112;18.418;2023-04-05T11:46:53;10.40;;;9.60;;
24259;SDS011;12384;48.112;18.418;2023-04-05T11:49:22;10.10;;;9.50;;
24259;SDS011;12384;48.112;18.418;2023-04-05T11:51:52;10.45;;;9.85;;
24259;SDS011;12384;48.112;18.418;2023-04-05T11:54:27;10.27;;;9.68;;
24259;SDS011;12384;48.112;18.418;2023-04-05T11:56:57;10.77;;;10.07;;
24259;SDS011;12384;48.112;18.418;2023-04-05T11:59:29;9.70;;;9.20;;
24259;SDS011;12384;48.112;18.418;2023-04-05T12:01:59;10.00;;;9.40;;
24259;SDS011;12384;48.112;18.418;2023-04-05T12:04:29;9.85;;;9.25;;
24259;SDS011;12384;48.112;18.418;2023-04-05T12:07:11;9.60;;;9.10;;
24259;SDS011;12384;48.112;18.418;2023-04-05T12:10:00;8.82;;;8.32;;
24259;SDS011;12384;48.112;18.418;2023-04-05T12:12:34;10.00;;;9.30;;
24259;SDS011;12384;48.112;18.418;2023-04-05T12:15:06;10.00;;;9.40;;
24259;SDS011;12384;48.112;18.418;2023-04-05T12:17:40;9.40;;;8.90;;
24259;SDS011;12384;48.112;18.418;2023-04-05T12:20:10;9.68;;;9.10;;
24259;SDS011;12384;48.112;18.418;2023-04-05T12:22:41;9.68;;;9.07;;
24259;SDS011;12384;48.112;18.418;2023-04-05T12:25:10;10.35;;;9.55;;
24259;SDS011;12384;48.112;18.418;2023-04-05T12:27:40;10.05;;;9.40;;
24259;SDS011;12384;48.112;18.418;2023-04-05T12:30:14;9.57;;;9.02;;
24259;SDS011;12384;48.112;18.418;2023-04-05T12:32:44;9.35;;;8.75;;
24259;SDS011;12384;48.112;18.418;2023-04-05T12:35:15;10.02;;;9.43;;
24259;SDS011;12384;48.112;18.418;2023-04-05T12:37:45;9.73;;;9.23;;
24259;SDS011;12384;48.112;18.418;2023-04-05T12:40:18;9.95;;;9.45;;
24259;SDS011;12384;48.112;18.418;2023-04-05T12:42:48;9.23;;;8.70;;
24259;SDS011;12384;48.112;18.418;2023-04-05T12:45:18;9.98;;;9.40;;
24259;SDS011;12384;48.112;18.418;2023-04-05T12:47:50;10.07;;;9.48;;
24259;SDS011;12384;48.112;18.418;2023-04-05T12:50:24;10.02;;;9.43;;
24259;SDS011;12384;48.112;18.418;2023-04-05T12:52:55;10.10;;;9.50;;
24259;SDS011;12384;48.112;18.418;2023-04-05T12:55:25;10.75;;;10.15;;
24259;SDS011;12384;48.112;18.418;2023-04-05T12:57:56;10.95;;;10.35;;
24259;SDS011;12384;48.112;18.418;2023-04-05T13:00:28;10.15;;;9.55;;
24259;SDS011;12384;48.112;18.418;2023-04-05T13:02:58;10.10;;;9.50;;
24259;SDS011;12384;48.112;18.418;2023-04-05T13:05:27;10.00;;;9.40;;
24259;SDS011;12384;48.112;18.418;2023-04-05T13:07:56;10.10;;;9.50;;
24259;SDS011;12384;48.112;18.418;2023-04-05T13:10:25;10.18;;;9.57;;
24259;SDS011;12384;48.112;18.418;2023-04-05T13:12:54;11.07;;;10.18;;
24259;SDS011;12384;48.112;18.418;2023-04-05T13:15:23;10.13;;;9.52;;
24259;SDS011;12384;48.112;18.418;2023-04-05T13:17:53;10.07;;;9.48;;
24259;SDS011;12384;48.112;18.418;2023-04-05T13:20:22;10.40;;;9.70;;
24259;SDS011;12384;48.112;18.418;2023-04-05T13:22:51;10.63;;;9.70;;
24259;SDS011;12384;48.112;18.418;2023-04-05T13:25:19;10.23;;;9.63;;
24259;SDS011;12384;48.112;18.418;2023-04-05T13:27:48;11.10;;;10.40;;
24259;SDS011;12384;48.112;18.418;2023-04-05T13:30:17;11.38;;;10.68;;
24259;SDS011;12384;48.112;18.418;2023-04-05T13:32:46;10.85;;;10.15;;
24259;SDS011;12384;48.112;18.418;2023-04-05T13:35:16;10.95;;;10.23;;
24259;SDS011;12384;48.112;18.418;2023-04-05T13:37:44;11.25;;;10.60;;
24259;SDS011;12384;48.112;18.418;2023-04-05T13:40:13;11.57;;;10.88;;
24259;SDS011;12384;48.112;18.418;2023-04-05T13:42:42;11.23;;;10.55;;
24259;SDS011;12384;48.112;18.418;2023-04-05T13:45:11;10.30;;;9.70;;
24259;SDS011;12384;48.112;18.418;2023-04-05T13:47:39;11.73;;;10.98;;
24259;SDS011;12384;48.112;18.418;2023-04-05T13:50:08;11.32;;;10.63;;
24259;SDS011;12384;48.112;18.418;2023-04-05T13:52:38;12.10;;;11.32;;
24259;SDS011;12384;48.112;18.418;2023-04-05T13:55:07;11.35;;;10.55;;
24259;SDS011;12384;48.112;18.418;2023-04-05T13:57:35;10.98;;;10.27;;
24259;SDS011;12384;48.112;18.418;2023-04-05T14:00:04;11.35;;;10.65;;
24259;SDS011;12384;48.112;18.418;2023-04-05T14:02:39;11.52;;;10.77;;
24259;SDS011;12384;48.112;18.418;2023-04-05T14:05:08;11.93;;;11.13;;
24259;SDS011;12384;48.112;18.418;2023-04-05T14:07:38;11.88;;;11.18;;
24259;SDS011;12384;48.112;18.418;2023-04-05T14:10:07;12.15;;;11.43;;
24259;SDS011;12384;48.112;18.418;2023-04-05T14:12:37;12.35;;;11.45;;
24259;SDS011;12384;48.112;18.418;2023-04-05T14:15:06;11.38;;;10.57;;
24259;SDS011;12384;48.112;18.418;2023-04-05T14:17:35;10.75;;;10.07;;
24259;SDS011;12384;48.112;18.418;2023-04-05T14:20:03;11.80;;;11.05;;
24259;SDS011;12384;48.112;18.418;2023-04-05T14:22:33;11.10;;;10.40;;
24259;SDS011;12384;48.112;18.418;2023-04-05T14:25:04;12.13;;;11.18;;
24259;SDS011;12384;48.112;18.418;2023-04-05T14:27:33;10.73;;;10.02;;
24259;SDS011;12384;48.112;18.418;2023-04-05T14:30:07;10.60;;;9.90;;
24259;SDS011;12384;48.112;18.418;2023-04-05T14:32:37;10.90;;;10.20;;
24259;SDS011;12384;48.112;18.418;2023-04-05T14:35:06;11.68;;;10.85;;
24259;SDS011;12384;48.112;18.418;2023-04-05T14:37:35;11.13;;;10.32;;
24259;SDS011;12384;48.112;18.418;2023-04-05T14:40:05;11.40;;;10.60;;
24259;SDS011;12384;48.112;18.418;2023-04-05T14:42:34;11.17;;;10.47;;
24259;SDS011;12384;48.112;18.418;2023-04-05T14:45:15;11.03;;;10.23;;